createdAt,value
2023-03-05T00:01:16.509Z,6.88
2023-03-05T00:03:44.342Z,6.86
2023-03-05T00:06:12.181Z,6.88
2023-03-05T00:08:41.522Z,6.84
2023-03-05T00:11:11.042Z,6.77
2023-03-05T00:13:39.891Z,6.84
2023-03-05T00:16:09.529Z,6.80
2023-03-05T00:18:37.599Z,6.74
2023-03-05T00:21:06.343Z,6.79
2023-03-05T00:23:34.178Z,6.81
2023-03-05T00:26:05.247Z,6.78
2023-03-05T00:28:32.984Z,6.81
2023-03-05T00:31:01.994Z,6.78
2023-03-05T00:33:29.857Z,6.81
2023-03-05T00:35:58.613Z,6.77
2023-03-05T00:38:26.362Z,6.77
2023-03-05T00:40:54.122Z,6.76
2023-03-05T00:43:23.255Z,6.76
2023-03-05T00:45:50.987Z,6.72
2023-03-05T00:48:19.328Z,6.72
2023-03-05T00:50:47.128Z,6.67
2023-03-05T00:53:14.999Z,6.72
2023-03-05T00:55:42.741Z,6.75
2023-03-05T00:58:10.866Z,6.78
2023-03-05T01:00:40.026Z,6.75
2023-03-05T01:03:07.826Z,6.73
2023-03-05T01:05:35.747Z,6.73
2023-03-05T01:08:04.415Z,6.67
2023-03-05T01:10:32.311Z,6.71
2023-03-05T01:13:00.126Z,6.69
2023-03-05T01:15:28.223Z,6.63
2023-03-05T01:17:57.524Z,6.65
2023-03-05T01:20:25.325Z,6.67
2023-03-05T01:22:53.967Z,6.64
2023-03-05T01:25:21.874Z,6.65
2023-03-05T01:27:49.683Z,6.55
2023-03-05T01:30:17.620Z,6.62
2023-03-05T01:32:45.499Z,6.60
2023-03-05T01:35:19.057Z,6.58
2023-03-05T01:37:46.864Z,6.60
2023-03-05T01:40:17.293Z,6.63
2023-03-05T01:42:48.129Z,6.62
2023-03-05T01:45:18.144Z,6.58
2023-03-05T01:47:46.985Z,6.56
2023-03-05T01:50:22.080Z,6.62
2023-03-05T01:52:53.525Z,6.39
2023-03-05T01:55:24.713Z,6.54
2023-03-05T01:57:55.072Z,6.54
2023-03-05T02:00:27.909Z,6.51
2023-03-05T02:02:58.118Z,6.51
2023-03-05T02:05:30.847Z,6.54
2023-03-05T02:08:00.047Z,6.52
2023-03-05T02:10:30.473Z,6.50
2023-03-05T02:13:00.833Z,6.51
2023-03-05T02:15:30.326Z,6.55
2023-03-05T02:17:58.138Z,6.54
2023-03-05T02:20:29.844Z,6.47
2023-03-05T02:22:59.232Z,6.56
2023-03-05T02:25:28.671Z,6.55
2023-03-05T02:28:01.058Z,6.54
2023-03-05T02:30:29.303Z,6.47
2023-03-05T02:32:57.100Z,6.49
2023-03-05T02:35:25.379Z,6.42
2023-03-05T02:37:53.355Z,6.45
2023-03-05T02:40:22.848Z,6.42
2023-03-05T02:42:50.781Z,6.51
2023-03-05T02:45:19.526Z,6.45
2023-03-05T02:47:47.364Z,6.45
2023-03-05T02:50:16.211Z,6.46
2023-03-05T02:52:44.021Z,6.46
2023-03-05T02:55:15.597Z,6.45
2023-03-05T02:57:46.209Z,6.42
2023-03-05T03:00:14.999Z,6.41
2023-03-05T03:02:42.899Z,6.37
2023-03-05T03:05:11.477Z,6.38
2023-03-05T03:07:39.203Z,6.42
2023-03-05T03:10:08.072Z,6.44
2023-03-05T03:12:38.296Z,6.39
2023-03-05T03:15:09.888Z,6.41
2023-03-05T03:17:38.379Z,6.41
2023-03-05T03:20:08.456Z,6.31
2023-03-05T03:22:36.209Z,6.30
2023-03-05T03:25:05.515Z,6.32
2023-03-05T03:27:33.338Z,6.31
2023-03-05T03:30:04.634Z,6.28
2023-03-05T03:32:34.308Z,6.32
2023-03-05T03:35:03.152Z,6.38
2023-03-05T03:37:31.058Z,6.34
2023-03-05T03:39:58.908Z,6.34
2023-03-05T03:42:26.868Z,6.28
2023-03-05T03:44:54.631Z,6.33
2023-03-05T03:47:22.362Z,6.35
2023-03-05T03:49:55.078Z,6.37
2023-03-05T03:52:23.156Z,6.35
2023-03-05T03:54:52.385Z,6.37
2023-03-05T03:57:20.337Z,6.33
2023-03-05T03:59:50.188Z,6.32
2023-03-05T04:02:18.067Z,6.36
2023-03-05T04:04:45.832Z,6.38
2023-03-05T04:07:16.171Z,6.38
2023-03-05T04:09:44.007Z,6.33
2023-03-05T04:12:11.782Z,6.32
2023-03-05T04:14:39.581Z,6.33
2023-03-05T04:17:07.339Z,6.24
2023-03-05T04:19:35.346Z,6.33
2023-03-05T04:22:03.153Z,6.30
2023-03-05T04:24:32.258Z,6.30
2023-03-05T04:27:00.011Z,6.22
2023-03-05T04:29:27.873Z,6.25
2023-03-05T04:31:55.615Z,6.27
2023-03-05T04:34:23.408Z,6.26
2023-03-05T04:36:51.169Z,6.26
2023-03-05T04:39:20.929Z,6.22
2023-03-05T04:41:50.093Z,6.23
2023-03-05T04:44:19.137Z,6.01
2023-03-05T04:46:47.037Z,6.20
2023-03-05T04:49:15.820Z,6.19
2023-03-05T04:51:43.599Z,6.17
2023-03-05T04:54:11.364Z,6.11
2023-03-05T04:56:39.131Z,6.11
2023-03-05T04:59:08.285Z,6.11
2023-03-05T05:01:36.143Z,6.12
2023-03-05T05:04:04.103Z,6.12
2023-03-05T05:06:32.002Z,6.15
2023-03-05T05:08:59.788Z,6.16
2023-03-05T05:11:27.680Z,6.06
2023-03-05T05:13:56.481Z,6.13
2023-03-05T05:16:25.886Z,6.12
2023-03-05T05:18:53.657Z,6.12
2023-03-05T05:21:21.733Z,6.14
2023-03-05T05:23:49.463Z,6.18
2023-03-05T05:26:17.187Z,6.19
2023-03-05T05:28:45.176Z,6.18
2023-03-05T05:31:15.723Z,6.16
2023-03-05T05:33:45.344Z,6.15
2023-03-05T05:36:16.299Z,6.09
2023-03-05T05:38:44.048Z,6.11
2023-03-05T05:41:14.011Z,6.12
2023-03-05T05:43:41.922Z,6.08
2023-03-05T05:46:13.420Z,6.13
2023-03-05T05:48:41.599Z,6.14
2023-03-05T05:51:14.877Z,6.14
2023-03-05T05:53:43.277Z,6.16
2023-03-05T05:56:11.874Z,6.13
2023-03-05T05:58:41.456Z,6.13
2023-03-05T06:01:18.004Z,6.11
2023-03-05T06:03:47.442Z,6.10
2023-03-05T06:06:19.558Z,6.08
2023-03-05T06:08:47.652Z,6.07
2023-03-05T06:11:18.223Z,6.07
2023-03-05T06:13:47.751Z,6.11
2023-03-05T06:16:19.643Z,6.05
2023-03-05T06:18:47.699Z,6.05
2023-03-05T06:21:18.803Z,6.08
2023-03-05T06:23:47.947Z,6.03
2023-03-05T06:26:20.822Z,6.10
2023-03-05T06:28:52.157Z,6.07
2023-03-05T06:31:23.018Z,6.09
2023-03-05T06:33:51.380Z,6.10
2023-03-05T06:36:24.759Z,6.07
2023-03-05T06:38:53.435Z,6.16
2023-03-05T06:41:24.129Z,6.14
2023-03-05T06:43:52.110Z,6.12
2023-03-05T06:46:21.631Z,6.18
2023-03-05T06:48:52.716Z,6.18
2023-03-05T06:51:24.633Z,6.17
2023-03-05T06:53:53.308Z,6.22
2023-03-05T06:56:22.236Z,6.26
2023-03-05T06:58:53.494Z,6.21
2023-03-05T07:01:23.598Z,6.23
2023-03-05T07:03:52.153Z,6.23
2023-03-05T07:06:22.809Z,6.27
2023-03-05T07:08:51.007Z,6.25
2023-03-05T07:11:20.968Z,6.28
2023-03-05T07:13:49.299Z,6.29
2023-03-05T07:16:19.245Z,6.25
2023-03-05T07:18:47.736Z,6.32
2023-03-05T07:21:18.966Z,6.33
2023-03-05T07:23:48.285Z,6.37
2023-03-05T07:26:16.878Z,6.39
2023-03-05T07:28:44.767Z,6.37
2023-03-05T07:31:18.154Z,6.27
2023-03-05T07:33:46.075Z,6.34
2023-03-05T07:36:14.338Z,6.30
2023-03-05T07:38:42.456Z,6.38
2023-03-05T07:41:13.821Z,6.35
2023-03-05T07:43:42.060Z,6.34
2023-03-05T07:46:12.611Z,6.41
2023-03-05T07:48:40.506Z,6.39
2023-03-05T07:51:10.043Z,6.35
2023-03-05T07:53:37.801Z,6.31
2023-03-05T07:56:06.549Z,6.39
2023-03-05T07:58:36.268Z,6.34
2023-03-05T08:01:04.314Z,6.33
2023-03-05T08:03:32.106Z,6.35
2023-03-05T08:05:59.854Z,6.35
2023-03-05T08:08:27.658Z,6.41
2023-03-05T08:10:55.410Z,6.35
2023-03-05T08:13:23.144Z,6.33
2023-03-05T08:15:52.237Z,6.39
2023-03-05T08:18:20.019Z,6.44
2023-03-05T08:20:47.762Z,6.38
2023-03-05T08:23:15.523Z,6.29
2023-03-05T08:25:43.263Z,6.32
2023-03-05T08:28:10.964Z,6.39
2023-03-05T08:30:41.016Z,6.44
2023-03-05T08:33:10.312Z,6.43
2023-03-05T08:35:38.082Z,6.46
2023-03-05T08:38:05.893Z,6.48
2023-03-05T08:40:34.128Z,6.46
2023-03-05T08:43:01.800Z,6.44
2023-03-05T08:45:29.795Z,6.42
2023-03-05T08:47:57.758Z,6.42
2023-03-05T08:50:27.214Z,6.37
2023-03-05T08:52:56.975Z,6.37
2023-03-05T08:55:24.961Z,6.39
2023-03-05T08:57:52.914Z,6.40
2023-03-05T09:00:21.391Z,6.43
2023-03-05T09:02:49.219Z,6.47
2023-03-05T09:05:17.243Z,6.47
2023-03-05T09:07:46.525Z,6.53
2023-03-05T09:10:14.778Z,6.59
2023-03-05T09:12:43.356Z,6.58
2023-03-05T09:15:12.708Z,6.57
2023-03-05T09:17:42.332Z,6.66
2023-03-05T09:20:13.445Z,6.63
2023-03-05T09:22:41.930Z,6.71
2023-03-05T09:25:13.048Z,6.76
2023-03-05T09:27:40.796Z,6.85
2023-03-05T09:30:09.765Z,6.90
2023-03-05T09:32:37.546Z,6.95
2023-03-05T09:35:06.195Z,7.02
2023-03-05T09:37:34.501Z,7.07
2023-03-05T09:40:02.261Z,7.13
2023-03-05T09:42:46.656Z,7.15
2023-03-05T09:45:22.400Z,7.16
2023-03-05T09:47:56.789Z,6.93
2023-03-05T09:50:35.810Z,7.02
2023-03-05T09:53:08.225Z,6.97
2023-03-05T09:55:40.560Z,6.90
2023-03-05T09:58:15.162Z,6.89
2023-03-05T10:00:45.211Z,6.85
2023-03-05T10:03:18.786Z,6.88
2023-03-05T10:05:57.100Z,6.80
2023-03-05T10:08:32.751Z,6.69
2023-03-05T10:11:07.541Z,6.60
2023-03-05T10:13:42.847Z,6.53
2023-03-05T10:16:30.767Z,6.49
2023-03-05T10:19:05.076Z,6.51
2023-03-05T10:21:41.191Z,6.60
2023-03-05T10:24:17.522Z,6.74
2023-03-05T10:26:58.622Z,6.75
2023-03-05T10:29:46.600Z,6.78
2023-03-05T10:32:32.618Z,6.75
2023-03-05T10:35:30.175Z,6.71
2023-03-05T10:38:31.428Z,6.64
2023-03-05T10:41:05.403Z,6.54
2023-03-05T10:43:41.920Z,6.49
2023-03-05T10:46:17.911Z,6.48
2023-03-05T10:48:51.987Z,6.45
2023-03-05T10:51:24.100Z,6.51
2023-03-05T10:53:57.042Z,6.45
2023-03-05T10:56:26.881Z,6.49
2023-03-05T10:58:55.083Z,6.58
2023-03-05T11:01:27.918Z,6.51
2023-03-05T11:03:58.890Z,6.53
2023-03-05T11:06:35.961Z,6.58
2023-03-05T11:09:18.740Z,6.52
2023-03-05T11:12:02.375Z,6.51
2023-03-05T11:14:33.371Z,6.42
2023-03-05T11:17:03.848Z,6.46
2023-03-05T11:19:33.091Z,6.48
2023-03-05T11:22:14.290Z,6.48
2023-03-05T11:24:42.274Z,6.41
2023-03-05T11:27:25.268Z,6.47
2023-03-05T11:29:53.396Z,6.47
2023-03-05T11:32:24.679Z,6.49
2023-03-05T11:34:53.320Z,6.49
2023-03-05T11:37:25.908Z,6.48
2023-03-05T11:40:19.030Z,6.48
2023-03-05T11:42:53.181Z,6.54
2023-03-05T11:45:21.256Z,6.57
2023-03-05T11:47:52.170Z,6.54
2023-03-05T11:50:25.683Z,6.55
2023-03-05T11:52:55.603Z,6.57
2023-03-05T11:55:29.499Z,6.52
2023-03-05T11:58:18.031Z,6.59
2023-03-05T12:00:47.533Z,6.48
2023-03-05T12:03:19.876Z,6.53
2023-03-05T12:05:51.736Z,6.53
2023-03-05T12:08:25.569Z,6.53
2023-03-05T12:10:53.751Z,6.59
2023-03-05T12:13:28.227Z,6.66
2023-03-05T12:16:07.260Z,6.71
2023-03-05T12:18:42.369Z,6.81
2023-03-05T12:21:18.317Z,6.86
2023-03-05T12:23:49.150Z,6.86
2023-03-05T12:26:16.944Z,6.94
2023-03-05T12:28:56.684Z,6.98
2023-03-05T12:31:35.761Z,6.95
2023-03-05T12:34:48.812Z,6.96
2023-03-05T12:37:50.076Z,6.99
2023-03-05T12:40:24.152Z,6.95
2023-03-05T12:42:59.636Z,6.88
2023-03-05T12:45:36.650Z,7.03
2023-03-05T12:48:42.493Z,7.10
2023-03-05T12:51:30.904Z,7.12
2023-03-05T12:54:00.975Z,7.15
2023-03-05T12:56:32.692Z,7.13
2023-03-05T12:59:02.756Z,7.19
2023-03-05T13:01:37.044Z,7.24
2023-03-05T13:04:11.077Z,7.27
2023-03-05T13:06:40.613Z,7.36
2023-03-05T13:09:18.212Z,7.39
2023-03-05T13:11:50.118Z,7.40
2023-03-05T13:14:35.567Z,7.41
2023-03-05T13:17:04.637Z,7.30
2023-03-05T13:19:36.023Z,7.34
2023-03-05T13:22:05.711Z,7.39
2023-03-05T13:24:33.423Z,7.47
2023-03-05T13:27:02.510Z,7.53
2023-03-05T13:29:31.202Z,7.58
2023-03-05T13:32:02.022Z,7.60
2023-03-05T13:34:46.111Z,7.62
2023-03-05T13:37:18.677Z,7.67
2023-03-05T13:39:51.108Z,7.69
2023-03-05T13:42:23.971Z,7.63
2023-03-05T13:44:56.445Z,7.57
2023-03-05T13:47:26.092Z,7.53
2023-03-05T13:49:59.837Z,7.54
2023-03-05T13:52:30.794Z,7.50
2023-03-05T13:54:59.641Z,7.51
2023-03-05T13:57:38.157Z,7.46
2023-03-05T14:00:08.556Z,7.41
2023-03-05T14:02:36.336Z,7.41
2023-03-05T14:05:04.164Z,7.37
2023-03-05T14:07:37.185Z,7.35
2023-03-05T14:10:05.675Z,7.34
2023-03-05T14:12:38.290Z,7.28
2023-03-05T14:15:21.938Z,7.23
2023-03-05T14:17:49.848Z,7.18
2023-03-05T14:20:25.721Z,7.22
2023-03-05T14:22:57.840Z,7.23
2023-03-05T14:25:33.741Z,7.24
2023-03-05T14:28:04.784Z,7.18
2023-03-05T14:30:35.176Z,7.19
2023-03-05T14:33:04.810Z,7.17
2023-03-05T14:35:32.716Z,7.16
2023-03-05T14:38:01.347Z,7.13
2023-03-05T14:40:31.365Z,7.11
2023-03-05T14:43:00.361Z,7.10
2023-03-05T14:45:31.136Z,7.08
2023-03-05T14:48:00.501Z,7.05
2023-03-05T14:50:31.222Z,7.02
2023-03-05T14:53:02.432Z,7.01
2023-03-05T14:55:32.848Z,6.98
2023-03-05T14:58:05.213Z,6.97
2023-03-05T15:00:34.426Z,6.96
2023-03-05T15:03:02.153Z,6.86
2023-03-05T15:05:30.148Z,6.82
2023-03-05T15:07:57.944Z,6.78
2023-03-05T15:10:27.554Z,6.81
2023-03-05T15:12:55.473Z,6.79
2023-03-05T15:15:23.682Z,6.75
2023-03-05T15:17:55.041Z,6.76
2023-03-05T15:20:24.693Z,6.68
2023-03-05T15:22:52.878Z,6.76
2023-03-05T15:25:22.628Z,6.71
2023-03-05T15:27:51.668Z,6.70
2023-03-05T15:30:23.378Z,6.72
2023-03-05T15:32:53.811Z,6.76
2023-03-05T15:35:22.502Z,6.76
2023-03-05T15:37:50.264Z,6.74
2023-03-05T15:40:18.688Z,6.73
2023-03-05T15:42:46.461Z,6.72
2023-03-05T15:45:16.153Z,6.70
2023-03-05T15:47:43.878Z,6.72
2023-03-05T15:50:13.312Z,6.72
2023-03-05T15:52:41.090Z,6.68
2023-03-05T15:55:10.075Z,6.72
2023-03-05T15:57:43.167Z,6.70
2023-03-05T16:00:12.529Z,6.68
2023-03-05T16:02:40.346Z,6.67
2023-03-05T16:05:09.525Z,6.69
2023-03-05T16:07:42.336Z,6.72
2023-03-05T16:10:12.831Z,6.72
2023-03-05T16:12:43.033Z,6.70
2023-03-05T16:15:14.568Z,6.69
2023-03-05T16:17:45.117Z,6.69
2023-03-05T16:20:14.490Z,6.70
2023-03-05T16:22:43.624Z,6.64
2023-03-05T16:25:11.624Z,6.59
2023-03-05T16:27:39.406Z,6.68
2023-03-05T16:30:08.666Z,6.66
2023-03-05T16:32:37.878Z,6.67
2023-03-05T16:35:06.587Z,6.63
2023-03-05T16:37:34.473Z,6.64
2023-03-05T16:40:03.649Z,6.62
2023-03-05T16:42:31.495Z,6.60
2023-03-05T16:44:59.418Z,6.58
2023-03-05T16:47:28.001Z,6.54
2023-03-05T16:49:55.956Z,6.56
2023-03-05T16:52:24.447Z,6.59
2023-03-05T16:54:52.845Z,6.57
2023-03-05T16:57:23.973Z,6.61
2023-03-05T16:59:51.905Z,6.56
2023-03-05T17:02:20.077Z,6.40
2023-03-05T17:04:48.964Z,6.49
2023-03-05T17:07:16.934Z,6.55
2023-03-05T17:09:45.874Z,6.58
2023-03-05T17:12:13.575Z,6.54
2023-03-05T17:14:42.619Z,6.53
2023-03-05T17:17:11.890Z,6.54
2023-03-05T17:19:40.342Z,6.50
2023-03-05T17:22:08.406Z,6.53
2023-03-05T17:24:36.394Z,6.54
2023-03-05T17:27:04.199Z,6.54
2023-03-05T17:29:31.902Z,6.51
2023-03-05T17:32:01.082Z,6.50
2023-03-05T17:34:35.933Z,6.51
2023-03-05T17:37:04.525Z,6.53
2023-03-05T17:39:32.312Z,6.52
2023-03-05T17:42:00.136Z,6.53
2023-03-05T17:44:27.915Z,6.52
2023-03-05T17:46:55.734Z,6.50
2023-03-05T17:49:24.829Z,6.49
2023-03-05T17:51:52.545Z,6.47
2023-03-05T17:54:20.332Z,6.50
2023-03-05T17:56:48.855Z,6.47
2023-03-05T17:59:16.640Z,6.52
2023-03-05T18:01:44.424Z,6.52
2023-03-05T18:04:12.736Z,6.50
2023-03-05T18:06:41.801Z,6.46
2023-03-05T18:09:09.529Z,6.42
2023-03-05T18:11:37.395Z,6.43
2023-03-05T18:14:05.147Z,6.42
2023-03-05T18:16:32.996Z,6.46
2023-03-05T18:19:00.768Z,6.43
2023-03-05T18:21:28.750Z,6.42
2023-03-05T18:23:57.857Z,6.45
2023-03-05T18:26:25.608Z,6.41
2023-03-05T18:28:53.793Z,6.37
2023-03-05T18:31:21.556Z,6.38
2023-03-05T18:33:50.350Z,6.40
2023-03-05T18:36:18.663Z,6.40
2023-03-05T18:38:46.771Z,6.38
2023-03-05T18:41:21.214Z,6.35
2023-03-05T18:43:48.967Z,6.34
2023-03-05T18:46:19.942Z,6.35
2023-03-05T18:48:48.143Z,6.40
2023-03-05T18:51:19.552Z,6.37
2023-03-05T18:53:50.248Z,6.33
2023-03-05T18:56:20.081Z,6.41
2023-03-05T18:58:47.924Z,6.35
2023-03-05T19:01:17.396Z,6.34
2023-03-05T19:03:45.249Z,6.37
2023-03-05T19:06:13.023Z,6.34
2023-03-05T19:08:40.726Z,6.37
2023-03-05T19:11:16.648Z,6.39
2023-03-05T19:13:50.318Z,6.33
2023-03-05T19:16:20.152Z,6.37
2023-03-05T19:19:17.763Z,6.28
2023-03-05T19:21:48.059Z,6.29
2023-03-05T19:24:16.464Z,6.34
2023-03-05T19:26:44.849Z,6.31
2023-03-05T19:29:13.986Z,6.30
2023-03-05T19:31:42.111Z,6.27
2023-03-05T19:34:09.903Z,6.28
2023-03-05T19:36:37.630Z,6.34
2023-03-05T19:39:05.477Z,6.31
2023-03-05T19:41:33.609Z,6.28
2023-03-05T19:44:01.936Z,6.31
2023-03-05T19:46:31.428Z,6.32
2023-03-05T19:48:59.558Z,6.32
2023-03-05T19:51:30.758Z,6.33
2023-03-05T19:53:58.543Z,6.32
2023-03-05T19:56:26.823Z,6.29
2023-03-05T19:58:54.649Z,6.26
2023-03-05T20:01:25.887Z,6.28
2023-03-05T20:03:56.690Z,6.29
2023-03-05T20:06:25.891Z,6.30
2023-03-05T20:08:54.176Z,6.20
2023-03-05T20:11:23.197Z,6.24
2023-03-05T20:13:52.268Z,6.19
2023-03-05T20:16:21.980Z,6.22
2023-03-05T20:18:52.651Z,6.26
2023-03-05T20:21:23.273Z,6.26
2023-03-05T20:23:51.281Z,6.22
2023-03-05T20:26:19.926Z,6.19
2023-03-05T20:28:48.273Z,6.19
2023-03-05T20:31:19.300Z,6.19
2023-03-05T20:33:47.128Z,6.16
2023-03-05T20:36:14.889Z,6.20
2023-03-05T20:38:45.678Z,6.18
2023-03-05T20:41:16.424Z,6.17
2023-03-05T20:43:46.077Z,6.11
2023-03-05T20:46:17.125Z,6.15
2023-03-05T20:48:45.775Z,6.12
2023-03-05T20:51:15.013Z,6.16
2023-03-05T20:53:44.131Z,6.10
2023-03-05T20:56:11.857Z,6.10
2023-03-05T20:58:40.199Z,6.10
2023-03-05T21:01:08.536Z,6.15
2023-03-05T21:03:37.268Z,6.09
2023-03-05T21:06:06.324Z,6.12
2023-03-05T21:08:34.108Z,6.13
2023-03-05T21:11:06.585Z,6.12
2023-03-05T21:13:34.884Z,6.13
2023-03-05T21:16:07.199Z,6.17
2023-03-05T21:18:35.401Z,6.11
2023-03-05T21:21:03.880Z,6.01
2023-03-05T21:23:31.651Z,6.09
2023-03-05T21:25:59.362Z,6.09
2023-03-05T21:28:29.401Z,6.10
2023-03-05T21:30:57.574Z,6.05
2023-03-05T21:33:27.349Z,6.01
2023-03-05T21:35:57.986Z,5.96
2023-03-05T21:38:29.732Z,5.97
2023-03-05T21:40:59.760Z,6.04
2023-03-05T21:43:29.188Z,6.09
2023-03-05T21:45:57.755Z,6.00
2023-03-05T21:48:26.306Z,6.02
2023-03-05T21:50:55.146Z,6.09
2023-03-05T21:53:23.193Z,6.01
2023-03-05T21:56:26.336Z,6.04
2023-03-05T21:58:55.500Z,6.00
2023-03-05T22:01:23.333Z,5.95
2023-03-05T22:03:51.198Z,6.03
2023-03-05T22:06:19.805Z,5.93
2023-03-05T22:08:48.345Z,5.89
2023-03-05T22:11:18.805Z,5.93
2023-03-05T22:13:46.562Z,5.97
2023-03-05T22:16:23.928Z,5.85
2023-03-05T22:18:51.748Z,5.93
2023-03-05T22:21:21.789Z,5.92
2023-03-05T22:23:49.748Z,5.86
2023-03-05T22:26:17.542Z,5.75
2023-03-05T22:28:45.346Z,5.83
2023-03-05T22:31:19.898Z,5.83
2023-03-05T22:33:49.290Z,5.79
2023-03-05T22:36:17.718Z,5.75
2023-03-05T22:38:45.944Z,5.76
2023-03-05T22:41:15.626Z,5.73
2023-03-05T22:43:43.523Z,5.68
2023-03-05T22:46:12.743Z,5.60
2023-03-05T22:48:41.167Z,5.51
2023-03-05T22:51:11.325Z,5.42
2023-03-05T22:53:39.898Z,5.41
2023-03-05T22:56:08.344Z,5.35
2023-03-05T22:58:36.380Z,5.37
2023-03-05T23:01:04.275Z,5.38
2023-03-05T23:03:32.073Z,5.47
2023-03-05T23:05:59.855Z,5.45
2023-03-05T23:08:28.996Z,5.47
2023-03-05T23:10:56.742Z,5.45
2023-03-05T23:13:24.473Z,5.42
2023-03-05T23:15:52.295Z,5.40
2023-03-05T23:18:20.208Z,5.44
2023-03-05T23:20:47.943Z,5.50
2023-03-05T23:23:15.699Z,5.51
2023-03-05T23:25:44.827Z,5.52
2023-03-05T23:28:12.564Z,5.51
2023-03-05T23:30:40.387Z,5.52
2023-03-05T23:33:12.824Z,5.45
2023-03-05T23:35:43.183Z,5.46
2023-03-05T23:38:13.836Z,5.40
2023-03-05T23:40:45.126Z,5.46
2023-03-05T23:43:13.682Z,5.36
2023-03-05T23:45:41.837Z,5.31
2023-03-05T23:48:09.796Z,5.31
2023-03-05T23:50:42.853Z,5.32
2023-03-05T23:53:11.588Z,5.32
2023-03-05T23:55:43.070Z,5.28
2023-03-05T23:58:12.676Z,5.31
